Terminal Aerodrome Forecast
Issued by NWS

Home | Current Version | Previous Version | Graphics & Text | Print | Product List | Glossary On
Versions: 1 2 3 4 5 6 7 8 9 10 11 12
059
FTUS41 KCLE 202336
TAFFDY
TAF
KFDY 202336Z 2100/2124 VRB03KT P6SM SCT250
     FM211500 07006KT P6SM BKN250=

USA.gov is the U.S. government's official web portal to all federal, state and local government web resources and services.